createdAt,value
2022-09-12T00:01:26.727Z,24.47
2022-09-12T00:04:01.770Z,24.31
2022-09-12T00:06:35.800Z,24.27
2022-09-12T00:09:05.898Z,24.26
2022-09-12T00:11:37.138Z,24.52
2022-09-12T00:14:05.893Z,24.60
2022-09-12T00:16:38.523Z,24.22
2022-09-12T00:19:07.918Z,23.73
2022-09-12T00:21:37.437Z,23.68
2022-09-12T00:24:06.328Z,23.67
2022-09-12T00:26:37.146Z,23.60
2022-09-12T00:29:05.259Z,23.51
2022-09-12T00:31:33.652Z,23.66
2022-09-12T00:34:04.133Z,23.88
2022-09-12T00:36:32.606Z,23.63
2022-09-12T00:39:05.369Z,23.47
2022-09-12T00:41:41.141Z,23.62
2022-09-12T00:44:11.893Z,23.68
2022-09-12T00:47:06.827Z,23.73
2022-09-12T00:49:59.642Z,23.73
2022-09-12T00:53:00.834Z,23.51
2022-09-12T00:55:41.248Z,23.22
2022-09-12T00:58:15.800Z,23.46
2022-09-12T01:00:47.043Z,23.58
2022-09-12T01:03:22.111Z,23.76
2022-09-12T01:06:16.463Z,23.75
2022-09-12T01:08:45.357Z,23.62
2022-09-12T01:11:14.249Z,23.45
2022-09-12T01:13:43.053Z,23.30
2022-09-12T01:16:11.129Z,23.18
2022-09-12T01:18:44.893Z,23.13
2022-09-12T01:21:37.058Z,23.08
2022-09-12T01:24:33.390Z,22.88
2022-09-12T01:27:22.701Z,22.76
2022-09-12T01:29:50.654Z,22.60
2022-09-12T01:32:21.721Z,22.50
2022-09-12T01:35:17.066Z,22.34
2022-09-12T01:37:54.257Z,22.13
2022-09-12T01:40:39.115Z,22.09
2022-09-12T01:43:39.004Z,21.99
2022-09-12T01:46:15.885Z,21.56
2022-09-12T01:48:51.773Z,21.65
2022-09-12T01:51:48.325Z,21.58
2022-09-12T01:54:32.476Z,21.45
2022-09-12T01:57:10.722Z,20.75
2022-09-12T01:59:46.204Z,20.98
2022-09-12T02:02:19.265Z,20.89
2022-09-12T02:05:13.905Z,20.49
2022-09-12T02:07:57.860Z,19.97
2022-09-12T02:10:32.542Z,19.98
2022-09-12T02:13:19.733Z,20.11
2022-09-12T02:15:55.407Z,19.71
2022-09-12T02:18:26.367Z,19.52
2022-09-12T02:20:55.544Z,19.34
2022-09-12T02:23:29.682Z,19.52
2022-09-12T02:26:07.332Z,19.51
2022-09-12T02:28:40.140Z,19.44
2022-09-12T02:31:26.772Z,19.38
2022-09-12T02:34:09.765Z,19.25
2022-09-12T02:36:40.295Z,19.20
2022-09-12T02:39:08.350Z,19.11
2022-09-12T02:41:36.859Z,18.97
2022-09-12T02:44:06.455Z,18.85
2022-09-12T02:46:41.805Z,18.57
2022-09-12T02:49:12.476Z,18.64
2022-09-12T02:51:46.369Z,18.42
2022-09-12T02:54:16.412Z,18.33
2022-09-12T02:56:46.388Z,18.17
2022-09-12T02:59:19.585Z,18.18
2022-09-12T03:02:04.817Z,16.66
2022-09-12T03:04:44.817Z,17.20
2022-09-12T03:07:41.263Z,16.69
2022-09-12T03:10:34.152Z,16.90
2022-09-12T03:13:46.105Z,16.76
2022-09-12T03:16:35.166Z,17.00
2022-09-12T03:19:43.869Z,16.89
2022-09-12T03:22:24.543Z,16.56
2022-09-12T03:24:55.665Z,16.19
2022-09-12T03:27:30.944Z,16.11
2022-09-12T03:29:59.350Z,16.11
2022-09-12T03:32:51.368Z,16.26
2022-09-12T03:35:23.170Z,15.81
2022-09-12T03:37:53.489Z,15.22
2022-09-12T03:40:26.440Z,15.91
2022-09-12T03:42:56.832Z,15.80
2022-09-12T03:45:24.858Z,15.70
2022-09-12T03:47:55.317Z,15.49
2022-09-12T03:50:25.728Z,15.75
2022-09-12T03:52:53.884Z,15.80
2022-09-12T03:55:21.921Z,15.59
2022-09-12T03:57:53.077Z,15.82
2022-09-12T04:00:21.171Z,15.03
2022-09-12T04:02:54.950Z,14.97
2022-09-12T04:05:22.992Z,15.05
2022-09-12T04:07:50.997Z,14.92
2022-09-12T04:10:22.310Z,15.04
2022-09-12T04:12:50.387Z,15.19
2022-09-12T04:15:18.479Z,14.39
2022-09-12T04:17:49.230Z,14.70
2022-09-12T04:20:17.297Z,14.93
2022-09-12T04:22:45.369Z,14.96
2022-09-12T04:25:16.232Z,15.02
2022-09-12T04:27:44.287Z,15.02
2022-09-12T04:30:12.830Z,15.03
2022-09-12T04:32:43.771Z,14.88
2022-09-12T04:35:11.799Z,14.63
2022-09-12T04:37:39.935Z,14.36
2022-09-12T04:40:08.560Z,14.08
2022-09-12T04:42:36.639Z,13.70
2022-09-12T04:45:05.025Z,13.56
2022-09-12T04:47:33.025Z,13.90
2022-09-12T04:50:01.040Z,13.68
2022-09-12T04:52:31.687Z,13.44
2022-09-12T04:54:59.712Z,13.16
2022-09-12T04:57:30.283Z,13.25
2022-09-12T05:00:05.151Z,13.60
2022-09-12T05:02:35.781Z,13.37
2022-09-12T05:05:04.480Z,13.29
2022-09-12T05:07:35.856Z,13.11
2022-09-12T05:10:04.824Z,13.51
2022-09-12T05:12:35.244Z,13.82
2022-09-12T05:15:06.222Z,13.88
2022-09-12T05:17:36.541Z,13.94
2022-09-12T05:20:07.206Z,13.93
2022-09-12T05:22:35.295Z,13.92
2022-09-12T05:25:05.873Z,13.75
2022-09-12T05:27:33.890Z,13.28
2022-09-12T05:30:01.958Z,12.61
2022-09-12T05:32:32.861Z,12.57
2022-09-12T05:35:00.908Z,12.67
2022-09-12T05:37:31.841Z,12.83
2022-09-12T05:40:04.037Z,12.73
2022-09-12T05:42:32.134Z,12.53
2022-09-12T05:45:02.764Z,12.59
2022-09-12T05:47:30.860Z,12.84
2022-09-12T05:49:58.833Z,12.87
2022-09-12T05:52:27.545Z,12.54
2022-09-12T05:54:55.584Z,12.65
2022-09-12T05:57:23.677Z,12.80
2022-09-12T05:59:54.266Z,12.85
2022-09-12T06:02:22.446Z,12.17
2022-09-12T06:04:50.471Z,12.25
2022-09-12T06:07:20.747Z,12.54
2022-09-12T06:09:48.843Z,12.23
2022-09-12T06:12:16.822Z,12.29
2022-09-12T06:14:44.860Z,12.14
2022-09-12T06:17:12.886Z,12.06
2022-09-12T06:19:41.018Z,12.06
2022-09-12T06:22:09.022Z,12.37
2022-09-12T06:24:37.056Z,11.96
2022-09-12T06:27:05.338Z,11.71
2022-09-12T06:29:36.233Z,11.82
2022-09-12T06:32:04.319Z,11.79
2022-09-12T06:34:33.199Z,11.59
2022-09-12T06:37:01.180Z,11.84
2022-09-12T06:39:34.602Z,11.65
2022-09-12T06:42:02.625Z,11.95
2022-09-12T06:44:30.645Z,12.07
2022-09-12T06:46:58.977Z,12.13
2022-09-12T06:49:29.287Z,12.16
2022-09-12T06:51:57.347Z,11.38
2022-09-12T06:54:25.408Z,11.82
2022-09-12T06:56:53.432Z,11.99
2022-09-12T06:59:21.417Z,11.97
2022-09-12T07:01:49.498Z,11.79
2022-09-12T07:04:17.532Z,11.76
2022-09-12T07:06:45.563Z,11.91
2022-09-12T07:09:16.854Z,11.56
2022-09-12T07:11:46.276Z,11.64
2022-09-12T07:14:15.305Z,11.45
2022-09-12T07:16:46.265Z,11.53
2022-09-12T07:19:14.285Z,11.52
2022-09-12T07:21:42.362Z,11.23
2022-09-12T07:24:11.473Z,11.19
2022-09-12T07:26:40.740Z,11.49
2022-09-12T07:32:02.744Z,10.88
2022-09-12T07:34:30.817Z,11.21
2022-09-12T07:37:01.457Z,11.02
2022-09-12T07:39:32.148Z,11.31
2022-09-12T07:42:00.150Z,11.22
2022-09-12T07:44:31.155Z,11.04
2022-09-12T07:46:59.523Z,11.01
2022-09-12T07:49:31.198Z,11.10
2022-09-12T07:51:59.534Z,11.05
2022-09-12T07:54:27.542Z,11.06
2022-09-12T07:56:55.604Z,10.79
2022-09-12T07:59:50.851Z,10.86
2022-09-12T08:02:18.102Z,10.91
2022-09-12T08:04:46.345Z,10.90
2022-09-12T08:07:14.321Z,11.04
2022-09-12T08:09:42.421Z,11.07
2022-09-12T08:12:10.472Z,11.05
2022-09-12T08:14:41.164Z,11.06
2022-09-12T08:17:14.292Z,10.84
2022-09-12T08:19:42.323Z,10.78
2022-09-12T08:22:13.950Z,10.75
2022-09-12T08:24:44.590Z,10.33
2022-09-12T08:27:12.574Z,10.45
2022-09-12T08:29:43.095Z,10.09
2022-09-12T08:32:11.189Z,9.97
2022-09-12T08:34:44.307Z,9.97
2022-09-12T08:37:12.603Z,10.27
2022-09-12T08:39:43.076Z,10.12
2022-09-12T08:42:22.228Z,10.41
2022-09-12T08:45:08.015Z,10.43
2022-09-12T08:47:40.902Z,10.23
2022-09-12T08:50:11.787Z,10.17
2022-09-12T08:53:10.966Z,10.36
2022-09-12T08:55:43.758Z,10.33
2022-09-12T08:58:20.389Z,10.40
2022-09-12T09:00:58.417Z,10.32
2022-09-12T09:04:07.408Z,10.28
2022-09-12T09:06:58.872Z,9.75
2022-09-12T09:09:54.052Z,9.86
2022-09-12T09:12:40.420Z,9.64
2022-09-12T09:15:23.376Z,9.87
2022-09-12T09:18:11.981Z,9.66
2022-09-12T09:20:39.930Z,9.77
2022-09-12T09:23:32.004Z,9.75
2022-09-12T09:26:06.135Z,9.57
2022-09-12T09:28:49.201Z,9.77
2022-09-12T09:31:20.665Z,9.83
2022-09-12T09:33:56.181Z,9.86
2022-09-12T09:37:00.979Z,9.90
2022-09-12T09:39:43.063Z,9.86
2022-09-12T09:42:23.805Z,9.74
2022-09-12T09:44:58.657Z,9.64
2022-09-12T09:47:29.123Z,9.59
2022-09-12T09:49:57.180Z,9.43
2022-09-12T09:52:31.632Z,9.34
2022-09-12T09:55:02.681Z,9.04
2022-09-12T09:57:37.960Z,8.86
2022-09-12T10:00:29.951Z,9.02
2022-09-12T10:03:13.483Z,8.96
2022-09-12T10:05:52.568Z,9.09
2022-09-12T10:08:35.645Z,9.11
2022-09-12T10:11:19.481Z,9.09
2022-09-12T10:13:58.768Z,9.08
2022-09-12T10:16:48.751Z,9.06
2022-09-12T10:19:34.416Z,9.12
2022-09-12T10:22:07.073Z,9.05
2022-09-12T10:24:43.509Z,9.02
2022-09-12T10:27:14.260Z,8.83
2022-09-12T10:30:02.538Z,8.53
2022-09-12T10:32:38.918Z,8.74
2022-09-12T10:35:19.219Z,8.75
2022-09-12T10:37:55.508Z,8.82
2022-09-12T10:40:29.883Z,8.78
2022-09-12T10:43:00.409Z,8.71
2022-09-12T10:45:36.693Z,8.69
2022-09-12T10:48:26.129Z,8.70
2022-09-12T10:50:57.512Z,8.71
2022-09-12T10:53:34.710Z,8.78
2022-09-12T10:56:19.543Z,8.77
2022-09-12T10:59:10.087Z,8.77
2022-09-12T11:02:06.107Z,8.59
2022-09-12T11:04:54.701Z,7.93
2022-09-12T11:07:48.578Z,7.87
2022-09-12T11:10:49.787Z,7.85
2022-09-12T11:13:35.888Z,8.15
2022-09-12T11:16:24.106Z,8.25
2022-09-12T11:19:26.168Z,8.42
2022-09-12T11:22:12.166Z,8.52
2022-09-12T11:25:10.496Z,8.45
2022-09-12T11:27:52.424Z,8.48
2022-09-12T11:30:20.671Z,8.31
2022-09-12T11:33:03.221Z,8.18
2022-09-12T11:35:32.524Z,8.28
2022-09-12T11:38:29.862Z,8.26
2022-09-12T11:41:08.613Z,8.36
2022-09-12T11:44:17.630Z,8.42
2022-09-12T11:46:51.112Z,8.48
2022-09-12T11:49:36.014Z,7.69
2022-09-12T11:52:18.052Z,7.68
2022-09-12T11:55:12.534Z,7.49
2022-09-12T11:57:49.480Z,7.97
2022-09-12T12:00:23.995Z,8.31
2022-09-12T12:03:10.245Z,8.49
2022-09-12T12:05:48.986Z,8.59
2022-09-12T12:08:20.149Z,8.72
2022-09-12T12:11:02.558Z,8.20
2022-09-12T12:13:37.863Z,8.40
2022-09-12T12:16:27.868Z,8.57
2022-09-12T12:18:59.416Z,8.35
2022-09-12T12:21:34.446Z,8.36
2022-09-12T12:24:13.407Z,8.40
2022-09-12T12:26:43.164Z,8.52
2022-09-12T12:29:12.569Z,8.39
2022-09-12T12:32:04.952Z,8.22
2022-09-12T12:34:38.608Z,8.18
2022-09-12T12:37:22.582Z,8.20
2022-09-12T12:39:50.633Z,8.22
2022-09-12T12:42:34.166Z,8.05
2022-09-12T12:45:10.700Z,8.11
2022-09-12T12:47:54.046Z,8.20
2022-09-12T12:50:25.403Z,8.31
2022-09-12T12:52:57.783Z,8.05
2022-09-12T12:55:27.390Z,8.15
2022-09-12T12:57:57.457Z,8.29
2022-09-12T13:00:25.457Z,8.43
2022-09-12T13:02:57.484Z,8.48
2022-09-12T13:05:31.372Z,8.39
2022-09-12T13:08:10.671Z,8.28
2022-09-12T13:10:39.637Z,8.20
2022-09-12T13:13:09.217Z,8.12
2022-09-12T13:15:37.934Z,8.23
2022-09-12T13:18:11.676Z,8.25
2022-09-12T13:20:52.960Z,8.30
2022-09-12T13:23:31.843Z,8.45
2022-09-12T13:26:05.286Z,7.64
2022-09-12T13:28:34.134Z,7.61
2022-09-12T13:31:08.006Z,7.83
2022-09-12T13:33:42.740Z,7.85
2022-09-12T13:36:31.428Z,7.96
2022-09-12T13:39:12.341Z,8.04
2022-09-12T13:42:08.650Z,8.08
2022-09-12T13:44:49.328Z,8.12
2022-09-12T13:47:24.788Z,8.18
2022-09-12T13:49:59.009Z,8.19
2022-09-12T13:52:32.385Z,8.21
2022-09-12T13:55:07.457Z,8.27
2022-09-12T13:57:39.367Z,8.25
2022-09-12T14:00:19.302Z,8.21
2022-09-12T14:02:50.011Z,8.54
2022-09-12T14:05:25.594Z,8.28
2022-09-12T14:07:57.953Z,8.46
2022-09-12T14:10:52.496Z,8.79
2022-09-12T14:13:26.063Z,8.96
2022-09-12T14:15:56.749Z,8.78
2022-09-12T14:18:31.518Z,8.77
2022-09-12T14:21:16.956Z,8.96
2022-09-12T14:23:49.037Z,8.75
2022-09-12T14:26:17.683Z,8.96
2022-09-12T14:28:47.219Z,9.04
2022-09-12T14:31:15.403Z,9.26
2022-09-12T14:33:54.260Z,9.52
2022-09-12T14:36:24.575Z,9.67
2022-09-12T14:39:00.342Z,9.84
2022-09-12T14:41:42.371Z,10.03
2022-09-12T14:44:21.984Z,10.08
2022-09-12T14:46:51.062Z,10.15
2022-09-12T14:49:31.393Z,10.24
2022-09-12T14:52:02.376Z,10.29
2022-09-12T14:54:30.392Z,10.28
2022-09-12T14:57:03.987Z,10.63
2022-09-12T14:59:34.687Z,10.83
2022-09-12T15:02:21.740Z,10.86
2022-09-12T15:04:56.106Z,10.78
2022-09-12T15:07:37.346Z,10.99
2022-09-12T15:10:14.585Z,10.96
2022-09-12T15:12:42.657Z,11.24
2022-09-12T15:15:21.937Z,11.32
2022-09-12T15:17:50.019Z,11.47
2022-09-12T15:20:20.897Z,11.53
2022-09-12T15:22:49.086Z,11.47
2022-09-12T15:25:20.119Z,11.45
2022-09-12T15:27:48.834Z,11.56
2022-09-12T15:30:16.971Z,11.50
2022-09-12T15:32:50.209Z,11.68
2022-09-12T15:35:24.388Z,11.74
2022-09-12T15:37:52.765Z,11.70
2022-09-12T15:40:20.822Z,11.79
2022-09-12T15:42:48.922Z,11.73
2022-09-12T15:45:19.775Z,11.66
2022-09-12T15:47:47.805Z,11.60
2022-09-12T15:50:16.337Z,11.60
2022-09-12T15:52:44.406Z,11.65
2022-09-12T15:55:24.308Z,11.80
2022-09-12T15:57:52.674Z,11.84
2022-09-12T16:00:20.965Z,11.81
2022-09-12T16:02:52.130Z,12.00
2022-09-12T16:05:24.507Z,11.96
2022-09-12T16:07:55.899Z,12.04
2022-09-12T16:10:26.808Z,12.11
2022-09-12T16:12:57.561Z,12.22
2022-09-12T16:15:29.083Z,12.39
2022-09-12T16:17:57.134Z,12.45
2022-09-12T16:20:27.825Z,12.57
2022-09-12T16:22:58.508Z,12.64
2022-09-12T16:25:26.577Z,12.60
2022-09-12T16:27:54.760Z,12.63
2022-09-12T16:30:22.988Z,12.67
2022-09-12T16:32:52.985Z,12.85
2022-09-12T16:35:21.077Z,12.96
2022-09-12T16:37:49.088Z,12.94
2022-09-12T16:40:17.569Z,12.98
2022-09-12T16:42:48.732Z,12.99
2022-09-12T16:45:17.080Z,13.16
2022-09-12T16:47:45.371Z,13.32
2022-09-12T16:50:13.424Z,13.75
2022-09-12T16:52:41.519Z,13.86
2022-09-12T16:55:10.872Z,14.10
2022-09-12T16:57:38.866Z,14.04
2022-09-12T17:00:07.653Z,14.14
2022-09-12T17:02:35.791Z,14.11
2022-09-12T17:05:04.383Z,14.09
2022-09-12T17:07:37.601Z,14.23
2022-09-12T17:10:05.931Z,14.44
2022-09-12T17:12:33.997Z,14.61
2022-09-12T17:15:04.568Z,14.73
2022-09-12T17:17:32.559Z,14.91
2022-09-12T17:20:00.613Z,15.31
2022-09-12T17:22:32.569Z,15.81
2022-09-12T17:25:01.794Z,15.83
2022-09-12T17:27:29.849Z,16.07
2022-09-12T17:29:57.883Z,16.62
2022-09-12T17:32:25.954Z,16.52
2022-09-12T17:34:54.099Z,16.32
2022-09-12T17:37:24.718Z,17.01
2022-09-12T17:39:55.125Z,17.27
2022-09-12T17:42:23.215Z,16.34
2022-09-12T17:44:54.128Z,16.67
2022-09-12T17:47:22.161Z,17.49
2022-09-12T17:49:50.161Z,17.79
2022-09-12T17:52:18.170Z,17.87
2022-09-12T17:54:46.248Z,18.29
2022-09-12T17:57:14.273Z,18.43
2022-09-12T17:59:42.326Z,18.62
2022-09-12T18:02:13.850Z,18.51
2022-09-12T18:04:46.006Z,18.75
2022-09-12T18:07:17.988Z,18.72
2022-09-12T18:09:46.561Z,18.33
2022-09-12T18:12:15.970Z,18.49
2022-09-12T18:14:44.102Z,18.45
2022-09-12T18:17:12.170Z,18.23
2022-09-12T18:19:40.231Z,18.22
2022-09-12T18:22:08.268Z,18.24
2022-09-12T18:24:36.900Z,18.43
2022-09-12T18:27:05.132Z,18.38
2022-09-12T18:29:33.284Z,18.04
2022-09-12T18:32:01.319Z,18.32
2022-09-12T18:34:32.325Z,18.24
2022-09-12T18:37:00.383Z,18.31
2022-09-12T18:39:28.414Z,18.59
2022-09-12T18:41:56.520Z,18.49
2022-09-12T18:44:24.621Z,18.40
2022-09-12T18:46:52.679Z,18.40
2022-09-12T18:49:20.874Z,18.60
2022-09-12T18:51:48.936Z,18.66
2022-09-12T18:54:16.956Z,18.60
2022-09-12T18:56:44.962Z,18.72
2022-09-12T18:59:13.050Z,18.84
2022-09-12T19:01:42.211Z,18.66
2022-09-12T19:04:12.269Z,18.90
2022-09-12T19:06:42.786Z,18.91
2022-09-12T19:09:12.530Z,19.02
2022-09-12T19:11:43.384Z,18.65
2022-09-12T19:14:11.406Z,18.75
2022-09-12T19:16:39.459Z,18.99
2022-09-12T19:19:07.504Z,18.95
2022-09-12T19:21:35.861Z,18.92
2022-09-12T19:24:07.157Z,18.73
2022-09-12T19:26:35.616Z,18.72
2022-09-12T19:29:06.628Z,18.44
2022-09-12T19:31:34.841Z,18.27
2022-09-12T19:34:08.739Z,18.56
2022-09-12T19:36:46.270Z,18.49
2022-09-12T19:39:16.607Z,18.84
2022-09-12T19:41:46.994Z,18.52
2022-09-12T19:44:15.090Z,18.59
2022-09-12T19:46:43.395Z,18.44
2022-09-12T19:49:12.699Z,18.76
2022-09-12T19:51:44.181Z,18.77
2022-09-12T19:54:14.481Z,18.96
2022-09-12T19:56:42.667Z,18.71
2022-09-12T19:59:10.809Z,19.09
2022-09-12T20:01:41.500Z,18.80
2022-09-12T20:04:12.531Z,18.99
2022-09-12T20:06:42.911Z,19.12
2022-09-12T20:09:13.815Z,19.34
2022-09-12T20:11:41.871Z,19.48
2022-09-12T20:14:09.862Z,19.08
2022-09-12T20:16:40.899Z,18.98
2022-09-12T20:19:12.159Z,19.37
2022-09-12T20:21:42.545Z,19.42
2022-09-12T20:24:17.361Z,19.34
2022-09-12T20:26:45.992Z,19.71
2022-09-12T20:29:14.053Z,19.53
2022-09-12T20:31:45.390Z,19.69
2022-09-12T20:34:18.714Z,19.22
2022-09-12T20:36:47.052Z,19.52
2022-09-12T20:39:18.214Z,19.65
2022-09-12T20:41:46.400Z,19.66
2022-09-12T20:44:15.155Z,19.60
2022-09-12T20:46:43.541Z,19.70
2022-09-12T20:49:11.649Z,19.65
2022-09-12T20:51:40.458Z,19.53
2022-09-12T20:54:08.628Z,19.66
2022-09-12T20:56:38.089Z,19.69
2022-09-12T20:59:06.579Z,19.64
2022-09-12T21:01:37.300Z,19.62
2022-09-12T21:04:05.698Z,19.73
2022-09-12T21:06:33.682Z,19.66
2022-09-12T21:09:04.875Z,19.65
2022-09-12T21:11:32.940Z,19.68
2022-09-12T21:14:01.026Z,19.70
2022-09-12T21:16:31.475Z,19.62
2022-09-12T21:19:00.476Z,19.43
2022-09-12T21:21:28.766Z,19.58
2022-09-12T21:24:03.276Z,19.20
2022-09-12T21:26:32.027Z,19.09
2022-09-12T21:29:00.098Z,19.27
2022-09-12T21:31:28.180Z,19.48
2022-09-12T21:33:56.303Z,19.55
2022-09-12T21:36:25.352Z,19.52
2022-09-12T21:38:53.351Z,19.10
2022-09-12T21:41:21.411Z,19.13
2022-09-12T21:43:49.535Z,19.09
2022-09-12T21:46:20.286Z,19.35
2022-09-12T21:48:48.417Z,19.44
2022-09-12T21:51:19.004Z,19.45
2022-09-12T21:53:47.610Z,19.38
2022-09-12T21:56:15.759Z,19.61
2022-09-12T21:58:46.420Z,19.59
2022-09-12T22:01:17.552Z,19.38
2022-09-12T22:03:45.622Z,19.35
2022-09-12T22:06:13.723Z,19.41
2022-09-12T22:08:41.806Z,19.45
2022-09-12T22:11:10.627Z,19.59
2022-09-12T22:13:43.421Z,19.57
2022-09-12T22:16:12.384Z,19.51
2022-09-12T22:18:40.465Z,19.63
2022-09-12T22:21:12.149Z,19.71
2022-09-12T22:23:40.267Z,19.60
2022-09-12T22:26:11.017Z,19.78
2022-09-12T22:28:39.127Z,19.99
2022-09-12T22:31:07.335Z,19.59
2022-09-12T22:33:35.432Z,19.57
2022-09-12T22:36:06.064Z,19.46
2022-09-12T22:38:37.019Z,19.50
2022-09-12T22:41:10.251Z,19.59
2022-09-12T22:43:38.823Z,19.58
2022-09-12T22:46:11.267Z,19.52
2022-09-12T22:48:42.196Z,19.62
2022-09-12T22:51:10.855Z,19.75
2022-09-12T22:53:39.105Z,19.78
2022-09-12T22:56:08.130Z,19.77
2022-09-12T22:58:37.333Z,19.77
2022-09-12T23:01:08.645Z,19.89
2022-09-12T23:03:39.142Z,20.13
2022-09-12T23:06:08.040Z,20.34
2022-09-12T23:08:37.144Z,20.10
2022-09-12T23:11:11.733Z,19.94
2022-09-12T23:13:42.145Z,20.13
2022-09-12T23:16:18.690Z,20.12
2022-09-12T23:18:52.924Z,20.28
2022-09-12T23:21:22.179Z,20.23
2022-09-12T23:23:51.064Z,20.15
2022-09-12T23:26:19.120Z,20.35
2022-09-12T23:28:52.616Z,20.58
2022-09-12T23:31:24.980Z,20.37
2022-09-12T23:33:57.277Z,20.16
2022-09-12T23:36:26.867Z,20.23
2022-09-12T23:38:55.924Z,20.18
2022-09-12T23:41:24.652Z,20.25
2022-09-12T23:43:52.936Z,20.33
2022-09-12T23:46:23.635Z,20.47
2022-09-12T23:48:51.881Z,20.28
2022-09-12T23:51:22.380Z,20.13
2022-09-12T23:53:52.941Z,20.13
2022-09-12T23:56:20.980Z,20.12
2022-09-12T23:58:49.476Z,20.17
